sensor_id;sensor_type;location;lat;lon;timestamp;pressure;altitude;pressure_sealevel;temperature;humidity
73860;BME280;62197;51.632;13.700;2023-04-03T00:01:32;101488.34;;;0.58;90.10
73860;BME280;62197;51.632;13.700;2023-04-03T00:03:57;101482.84;;;0.50;90.64
73860;BME280;62197;51.632;13.700;2023-04-03T00:06:23;101496.25;;;0.52;90.57
73860;BME280;62197;51.632;13.700;2023-04-03T00:08:49;101489.84;;;0.43;91.29
73860;BME280;62197;51.632;13.700;2023-04-03T00:11:15;101490.22;;;0.31;91.37
73860;BME280;62197;51.632;13.700;2023-04-03T00:13:41;101496.25;;;0.25;92.30
73860;BME280;62197;51.632;13.700;2023-04-03T00:16:08;101493.38;;;0.26;92.24
73860;BME280;62197;51.632;13.700;2023-04-03T00:18:34;101504.84;;;0.20;92.53
73860;BME280;62197;51.632;13.700;2023-04-03T00:20:59;101494.19;;;0.09;92.81
73860;BME280;62197;51.632;13.700;2023-04-03T00:23:24;101495.16;;;0.08;93.44
73860;BME280;62197;51.632;13.700;2023-04-03T00:25:51;101504.06;;;0.00;94.29
73860;BME280;62197;51.632;13.700;2023-04-03T00:28:16;101499.81;;;-0.02;94.59
73860;BME280;62197;51.632;13.700;2023-04-03T00:30:41;101508.38;;;-0.07;94.34
73860;BME280;62197;51.632;13.700;2023-04-03T00:33:07;101506.81;;;-0.09;95.14
73860;BME280;62197;51.632;13.700;2023-04-03T00:35:34;101498.97;;;-0.12;95.50
73860;BME280;62197;51.632;13.700;2023-04-03T00:38:00;101506.13;;;-0.21;96.10
73860;BME280;62197;51.632;13.700;2023-04-03T00:40:26;101509.28;;;-0.16;95.85
73860;BME280;62197;51.632;13.700;2023-04-03T00:42:56;101514.28;;;-0.21;95.95
73860;BME280;62197;51.632;13.700;2023-04-03T00:45:34;101509.59;;;-0.28;97.02
73860;BME280;62197;51.632;13.700;2023-04-03T00:48:01;101517.00;;;-0.30;97.26
73860;BME280;62197;51.632;13.700;2023-04-03T00:50:29;101509.88;;;-0.31;97.11
73860;BME280;62197;51.632;13.700;2023-04-03T00:52:56;101509.31;;;-0.35;97.31
73860;BME280;62197;51.632;13.700;2023-04-03T00:55:21;101519.75;;;-0.40;97.96
73860;BME280;62197;51.632;13.700;2023-04-03T00:57:47;101510.91;;;-0.42;97.68
73860;BME280;62197;51.632;13.700;2023-04-03T01:00:16;101517.75;;;-0.47;99.01
73860;BME280;62197;51.632;13.700;2023-04-03T01:02:43;101513.06;;;-0.55;99.25
73860;BME280;62197;51.632;13.700;2023-04-03T01:05:09;101510.78;;;-0.59;99.38
73860;BME280;62197;51.632;13.700;2023-04-03T01:07:35;101522.50;;;-0.59;99.57
73860;BME280;62197;51.632;13.700;2023-04-03T01:10:05;101524.75;;;-0.64;100.00
73860;BME280;62197;51.632;13.700;2023-04-03T01:12:37;101525.06;;;-0.67;100.00
73860;BME280;62197;51.632;13.700;2023-04-03T01:15:07;101521.94;;;-0.72;100.00
73860;BME280;62197;51.632;13.700;2023-04-03T01:17:40;101520.50;;;-0.76;100.00
73860;BME280;62197;51.632;13.700;2023-04-03T01:25:32;101528.03;;;-0.89;100.00
73860;BME280;62197;51.632;13.700;2023-04-03T01:27:57;101528.50;;;-0.94;100.00
73860;BME280;62197;51.632;13.700;2023-04-03T01:30:28;101520.78;;;-0.98;100.00
73860;BME280;62197;51.632;13.700;2023-04-03T01:32:55;101536.47;;;-1.02;100.00
73860;BME280;62197;51.632;13.700;2023-04-03T01:35:21;101527.06;;;-1.07;100.00
73860;BME280;62197;51.632;13.700;2023-04-03T01:37:46;101523.91;;;-1.12;100.00
73860;BME280;62197;51.632;13.700;2023-04-03T01:40:11;101526.19;;;-1.17;100.00
73860;BME280;62197;51.632;13.700;2023-04-03T01:42:36;101523.78;;;-1.20;100.00
73860;BME280;62197;51.632;13.700;2023-04-03T01:45:02;101538.03;;;-1.18;100.00
73860;BME280;62197;51.632;13.700;2023-04-03T01:47:28;101535.88;;;-1.24;100.00
73860;BME280;62197;51.632;13.700;2023-04-03T01:49:53;101548.97;;;-1.29;100.00
73860;BME280;62197;51.632;13.700;2023-04-03T01:52:18;101544.41;;;-1.29;100.00
73860;BME280;62197;51.632;13.700;2023-04-03T01:54:44;101544.72;;;-1.32;100.00
73860;BME280;62197;51.632;13.700;2023-04-03T01:57:09;101550.38;;;-1.35;100.00
73860;BME280;62197;51.632;13.700;2023-04-03T01:59:35;101548.06;;;-1.39;100.00
73860;BME280;62197;51.632;13.700;2023-04-03T02:02:00;101536.09;;;-1.46;100.00
73860;BME280;62197;51.632;13.700;2023-04-03T02:04:26;101546.69;;;-1.43;100.00
73860;BME280;62197;51.632;13.700;2023-04-03T02:06:51;101552.78;;;-1.41;100.00
73860;BME280;62197;51.632;13.700;2023-04-03T02:09:16;101538.09;;;-1.48;100.00
73860;BME280;62197;51.632;13.700;2023-04-03T02:11:42;101554.06;;;-1.45;100.00
73860;BME280;62197;51.632;13.700;2023-04-03T02:14:07;101561.59;;;-1.49;100.00
73860;BME280;62197;51.632;13.700;2023-04-03T02:16:32;101544.06;;;-1.54;100.00
73860;BME280;62197;51.632;13.700;2023-04-03T02:18:58;101554.16;;;-1.56;100.00
73860;BME280;62197;51.632;13.700;2023-04-03T02:21:23;101561.13;;;-1.63;100.00
73860;BME280;62197;51.632;13.700;2023-04-03T02:23:49;101567.25;;;-1.61;100.00
73860;BME280;62197;51.632;13.700;2023-04-03T02:26:15;101560.69;;;-1.68;100.00
73860;BME280;62197;51.632;13.700;2023-04-03T02:28:41;101545.97;;;-1.75;100.00
73860;BME280;62197;51.632;13.700;2023-04-03T02:31:07;101572.16;;;-1.76;100.00
73860;BME280;62197;51.632;13.700;2023-04-03T02:33:32;101565.06;;;-1.77;100.00
73860;BME280;62197;51.632;13.700;2023-04-03T02:35:58;101563.03;;;-1.85;100.00
73860;BME280;62197;51.632;13.700;2023-04-03T02:38:24;101573.56;;;-1.82;100.00
73860;BME280;62197;51.632;13.700;2023-04-03T02:40:50;101577.28;;;-1.83;100.00
73860;BME280;62197;51.632;13.700;2023-04-03T02:43:16;101574.59;;;-1.83;100.00
73860;BME280;62197;51.632;13.700;2023-04-03T02:45:41;101577.00;;;-1.79;100.00
73860;BME280;62197;51.632;13.700;2023-04-03T02:48:07;101583.13;;;-1.77;100.00
73860;BME280;62197;51.632;13.700;2023-04-03T02:50:32;101573.31;;;-1.78;100.00
73860;BME280;62197;51.632;13.700;2023-04-03T02:52:57;101576.13;;;-1.80;100.00
73860;BME280;62197;51.632;13.700;2023-04-03T02:55:23;101580.72;;;-1.80;100.00
73860;BME280;62197;51.632;13.700;2023-04-03T02:57:48;101588.09;;;-1.83;100.00
73860;BME280;62197;51.632;13.700;2023-04-03T03:00:13;101589.22;;;-1.85;100.00
73860;BME280;62197;51.632;13.700;2023-04-03T03:02:39;101583.22;;;-1.89;100.00
73860;BME280;62197;51.632;13.700;2023-04-03T03:05:05;101581.50;;;-1.90;100.00
73860;BME280;62197;51.632;13.700;2023-04-03T03:07:31;101592.31;;;-1.90;100.00
73860;BME280;62197;51.632;13.700;2023-04-03T03:09:57;101593.19;;;-1.89;100.00
73860;BME280;62197;51.632;13.700;2023-04-03T03:12:22;101594.78;;;-1.87;100.00
73860;BME280;62197;51.632;13.700;2023-04-03T03:14:49;101592.22;;;-1.88;100.00
73860;BME280;62197;51.632;13.700;2023-04-03T03:17:14;101597.72;;;-1.90;100.00
73860;BME280;62197;51.632;13.700;2023-04-03T03:19:40;101598.28;;;-1.96;100.00
73860;BME280;62197;51.632;13.700;2023-04-03T03:22:05;101605.41;;;-1.95;100.00
73860;BME280;62197;51.632;13.700;2023-04-03T03:24:31;101591.69;;;-2.03;100.00
73860;BME280;62197;51.632;13.700;2023-04-03T03:26:56;101601.25;;;-1.99;100.00
73860;BME280;62197;51.632;13.700;2023-04-03T03:29:21;101605.94;;;-2.01;100.00
73860;BME280;62197;51.632;13.700;2023-04-03T03:31:47;101601.63;;;-2.03;100.00
73860;BME280;62197;51.632;13.700;2023-04-03T03:34:12;101603.94;;;-1.99;100.00
73860;BME280;62197;51.632;13.700;2023-04-03T03:36:38;101607.91;;;-2.03;100.00
73860;BME280;62197;51.632;13.700;2023-04-03T03:39:03;101600.34;;;-2.09;100.00
73860;BME280;62197;51.632;13.700;2023-04-03T03:41:29;101600.81;;;-2.04;100.00
73860;BME280;62197;51.632;13.700;2023-04-03T03:43:54;101608.91;;;-2.04;100.00
73860;BME280;62197;51.632;13.700;2023-04-03T03:46:20;101600.63;;;-2.12;100.00
73860;BME280;62197;51.632;13.700;2023-04-03T03:48:45;101602.06;;;-2.08;100.00
73860;BME280;62197;51.632;13.700;2023-04-03T03:51:10;101601.34;;;-2.10;100.00
73860;BME280;62197;51.632;13.700;2023-04-03T03:53:35;101596.47;;;-2.16;100.00
73860;BME280;62197;51.632;13.700;2023-04-03T03:56:01;101608.13;;;-2.15;100.00
73860;BME280;62197;51.632;13.700;2023-04-03T03:58:26;101598.44;;;-2.18;100.00
73860;BME280;62197;51.632;13.700;2023-04-03T04:00:52;101605.81;;;-2.20;100.00
73860;BME280;62197;51.632;13.700;2023-04-03T04:03:17;101583.25;;;-2.30;100.00
73860;BME280;62197;51.632;13.700;2023-04-03T04:05:43;101598.81;;;-2.22;100.00
73860;BME280;62197;51.632;13.700;2023-04-03T04:08:08;101599.25;;;-2.27;100.00
73860;BME280;62197;51.632;13.700;2023-04-03T04:10:34;101605.22;;;-2.23;100.00
73860;BME280;62197;51.632;13.700;2023-04-03T04:13:00;101602.03;;;-2.28;100.00
73860;BME280;62197;51.632;13.700;2023-04-03T04:15:25;101593.22;;;-2.30;100.00
73860;BME280;62197;51.632;13.700;2023-04-03T04:17:52;101597.78;;;-2.31;100.00
73860;BME280;62197;51.632;13.700;2023-04-03T04:20:18;101603.78;;;-2.27;100.00
73860;BME280;62197;51.632;13.700;2023-04-03T04:22:43;101601.75;;;-2.35;100.00
73860;BME280;62197;51.632;13.700;2023-04-03T04:25:09;101614.25;;;-2.34;100.00
73860;BME280;62197;51.632;13.700;2023-04-03T04:27:35;101614.13;;;-2.32;100.00
73860;BME280;62197;51.632;13.700;2023-04-03T04:30:00;101613.28;;;-2.33;100.00
73860;BME280;62197;51.632;13.700;2023-04-03T04:32:26;101613.53;;;-2.36;100.00
73860;BME280;62197;51.632;13.700;2023-04-03T04:34:51;101613.66;;;-2.37;100.00
73860;BME280;62197;51.632;13.700;2023-04-03T04:37:17;101621.91;;;-2.39;100.00
73860;BME280;62197;51.632;13.700;2023-04-03T04:39:42;101617.38;;;-2.38;100.00
73860;BME280;62197;51.632;13.700;2023-04-03T04:42:07;101615.91;;;-2.42;100.00
73860;BME280;62197;51.632;13.700;2023-04-03T04:44:38;101626.78;;;-2.33;100.00
73860;BME280;62197;51.632;13.700;2023-04-03T04:47:03;101628.78;;;-2.35;100.00
73860;BME280;62197;51.632;13.700;2023-04-03T04:49:28;101619.59;;;-2.43;100.00
73860;BME280;62197;51.632;13.700;2023-04-03T04:51:54;101622.16;;;-2.42;100.00
73860;BME280;62197;51.632;13.700;2023-04-03T04:54:19;101632.13;;;-2.42;100.00
73860;BME280;62197;51.632;13.700;2023-04-03T04:56:44;101640.22;;;-2.42;100.00
73860;BME280;62197;51.632;13.700;2023-04-03T04:59:10;101645.00;;;-2.35;100.00
73860;BME280;62197;51.632;13.700;2023-04-03T05:01:35;101638.13;;;-2.39;100.00
73860;BME280;62197;51.632;13.700;2023-04-03T05:04:00;101643.53;;;-2.39;100.00
73860;BME280;62197;51.632;13.700;2023-04-03T05:06:26;101642.28;;;-2.35;100.00
73860;BME280;62197;51.632;13.700;2023-04-03T05:08:51;101637.13;;;-2.38;100.00
73860;BME280;62197;51.632;13.700;2023-04-03T05:11:16;101653.03;;;-2.24;100.00
73860;BME280;62197;51.632;13.700;2023-04-03T05:13:42;101652.22;;;-2.15;100.00
73860;BME280;62197;51.632;13.700;2023-04-03T05:16:07;101649.16;;;-2.10;100.00
73860;BME280;62197;51.632;13.700;2023-04-03T05:18:32;101652.78;;;-2.00;100.00
73860;BME280;62197;51.632;13.700;2023-04-03T05:20:58;101639.50;;;-2.03;100.00
73860;BME280;62197;51.632;13.700;2023-04-03T05:23:23;101651.38;;;-1.95;100.00
73860;BME280;62197;51.632;13.700;2023-04-03T05:25:49;101654.28;;;-1.87;100.00
73860;BME280;62197;51.632;13.700;2023-04-03T05:28:15;101654.72;;;-1.82;100.00
73860;BME280;62197;51.632;13.700;2023-04-03T05:30:40;101655.47;;;-1.79;100.00
73860;BME280;62197;51.632;13.700;2023-04-03T05:33:05;101653.47;;;-1.77;100.00
73860;BME280;62197;51.632;13.700;2023-04-03T05:35:31;101656.81;;;-1.64;100.00
73860;BME280;62197;51.632;13.700;2023-04-03T05:37:56;101658.59;;;-1.54;100.00
73860;BME280;62197;51.632;13.700;2023-04-03T05:40:22;101659.38;;;-1.42;100.00
73860;BME280;62197;51.632;13.700;2023-04-03T05:42:47;101662.66;;;-1.09;100.00
73860;BME280;62197;51.632;13.700;2023-04-03T05:45:13;101653.78;;;-1.20;100.00
73860;BME280;62197;51.632;13.700;2023-04-03T05:47:38;101664.91;;;-1.04;100.00
73860;BME280;62197;51.632;13.700;2023-04-03T05:50:04;101668.06;;;-1.09;100.00
73860;BME280;62197;51.632;13.700;2023-04-03T05:52:33;101663.47;;;-1.08;100.00
73860;BME280;62197;51.632;13.700;2023-04-03T05:55:00;101663.66;;;-1.00;100.00
73860;BME280;62197;51.632;13.700;2023-04-03T05:57:25;101667.78;;;-0.96;100.00
73860;BME280;62197;51.632;13.700;2023-04-03T05:59:51;101652.38;;;-1.05;100.00
73860;BME280;62197;51.632;13.700;2023-04-03T06:02:19;101670.25;;;-0.93;100.00
73860;BME280;62197;51.632;13.700;2023-04-03T06:04:45;101672.00;;;-0.73;100.00
73860;BME280;62197;51.632;13.700;2023-04-03T06:07:13;101675.72;;;-0.55;100.00
73860;BME280;62197;51.632;13.700;2023-04-03T06:09:39;101671.59;;;-0.40;100.00
73860;BME280;62197;51.632;13.700;2023-04-03T06:12:04;101673.44;;;-0.31;100.00
73860;BME280;62197;51.632;13.700;2023-04-03T06:14:30;101678.16;;;-0.33;100.00
73860;BME280;62197;51.632;13.700;2023-04-03T06:16:55;101676.63;;;-0.26;99.16
73860;BME280;62197;51.632;13.700;2023-04-03T06:19:21;101670.88;;;-0.32;99.09
73860;BME280;62197;51.632;13.700;2023-04-03T06:21:47;101678.88;;;-0.12;98.50
73860;BME280;62197;51.632;13.700;2023-04-03T06:24:15;101678.19;;;-0.04;98.35
73860;BME280;62197;51.632;13.700;2023-04-03T06:26:42;101675.16;;;-0.01;97.39
73860;BME280;62197;51.632;13.700;2023-04-03T06:29:07;101677.88;;;0.09;97.53
73860;BME280;62197;51.632;13.700;2023-04-03T06:31:33;101684.72;;;0.13;95.41
73860;BME280;62197;51.632;13.700;2023-04-03T06:33:58;101686.00;;;0.09;95.28
73860;BME280;62197;51.632;13.700;2023-04-03T06:36:23;101679.59;;;0.10;95.73
73860;BME280;62197;51.632;13.700;2023-04-03T06:38:49;101687.69;;;0.29;94.44
73860;BME280;62197;51.632;13.700;2023-04-03T06:41:15;101690.69;;;0.72;97.04
73860;BME280;62197;51.632;13.700;2023-04-03T06:43:41;101682.91;;;0.96;91.96
73860;BME280;62197;51.632;13.700;2023-04-03T06:46:12;101688.94;;;0.90;92.49
73860;BME280;62197;51.632;13.700;2023-04-03T06:48:38;101693.56;;;1.07;89.93
73860;BME280;62197;51.632;13.700;2023-04-03T06:51:03;101688.72;;;1.01;88.17
73860;BME280;62197;51.632;13.700;2023-04-03T06:53:29;101701.22;;;0.94;88.44
73860;BME280;62197;51.632;13.700;2023-04-03T06:55:54;101693.66;;;1.15;92.07
73860;BME280;62197;51.632;13.700;2023-04-03T06:58:20;101694.91;;;1.21;88.79
73860;BME280;62197;51.632;13.700;2023-04-03T07:00:47;101702.47;;;1.27;87.12
73860;BME280;62197;51.632;13.700;2023-04-03T07:03:12;101711.66;;;1.43;86.36
73860;BME280;62197;51.632;13.700;2023-04-03T07:05:37;101706.31;;;1.51;87.29
73860;BME280;62197;51.632;13.700;2023-04-03T07:08:03;101710.34;;;1.47;85.78
73860;BME280;62197;51.632;13.700;2023-04-03T07:10:28;101705.13;;;1.99;90.39
73860;BME280;62197;51.632;13.700;2023-04-03T07:12:53;101706.91;;;2.51;79.08
73860;BME280;62197;51.632;13.700;2023-04-03T07:15:19;101712.03;;;1.93;82.18
73860;BME280;62197;51.632;13.700;2023-04-03T07:17:44;101709.41;;;1.83;82.46
73860;BME280;62197;51.632;13.700;2023-04-03T07:20:10;101723.47;;;1.79;82.30
73860;BME280;62197;51.632;13.700;2023-04-03T07:22:36;101711.34;;;1.73;82.02
73860;BME280;62197;51.632;13.700;2023-04-03T07:25:02;101725.03;;;1.81;81.12
73860;BME280;62197;51.632;13.700;2023-04-03T07:27:27;101706.84;;;1.64;80.83
73860;BME280;62197;51.632;13.700;2023-04-03T07:29:53;101704.47;;;2.40;81.27
73860;BME280;62197;51.632;13.700;2023-04-03T07:32:18;101712.94;;;2.37;80.45
73860;BME280;62197;51.632;13.700;2023-04-03T07:34:43;101721.53;;;2.24;78.91
73860;BME280;62197;51.632;13.700;2023-04-03T07:37:09;101717.56;;;2.19;79.05
73860;BME280;62197;51.632;13.700;2023-04-03T07:39:35;101719.50;;;1.91;79.31
73860;BME280;62197;51.632;13.700;2023-04-03T07:42:00;101721.22;;;2.53;78.60
73860;BME280;62197;51.632;13.700;2023-04-03T07:44:26;101715.72;;;2.45;81.54
73860;BME280;62197;51.632;13.700;2023-04-03T07:46:51;101717.50;;;2.11;77.32
73860;BME280;62197;51.632;13.700;2023-04-03T07:49:17;101726.34;;;2.56;76.72
73860;BME280;62197;51.632;13.700;2023-04-03T07:51:48;101717.88;;;2.59;76.76
73860;BME280;62197;51.632;13.700;2023-04-03T07:54:13;101730.53;;;2.68;76.44
73860;BME280;62197;51.632;13.700;2023-04-03T07:56:39;101719.81;;;3.00;77.18
73860;BME280;62197;51.632;13.700;2023-04-03T07:59:04;101724.38;;;3.25;74.63
73860;BME280;62197;51.632;13.700;2023-04-03T08:01:30;101739.25;;;3.31;74.69
73860;BME280;62197;51.632;13.700;2023-04-03T08:03:57;101736.22;;;3.42;74.79
73860;BME280;62197;51.632;13.700;2023-04-03T08:06:22;101734.72;;;3.55;77.90
73860;BME280;62197;51.632;13.700;2023-04-03T08:08:48;101728.03;;;2.74;72.11
73860;BME280;62197;51.632;13.700;2023-04-03T08:11:13;101722.28;;;2.60;73.06
73860;BME280;62197;51.632;13.700;2023-04-03T08:13:38;101728.56;;;2.78;72.71
73860;BME280;62197;51.632;13.700;2023-04-03T08:16:11;101731.69;;;2.91;73.27
73860;BME280;62197;51.632;13.700;2023-04-03T08:18:37;101731.00;;;2.89;74.17
73860;BME280;62197;51.632;13.700;2023-04-03T08:21:09;101732.19;;;3.20;73.21
73860;BME280;62197;51.632;13.700;2023-04-03T08:23:35;101726.31;;;3.33;72.22
73860;BME280;62197;51.632;13.700;2023-04-03T08:26:09;101723.94;;;3.04;71.89
73860;BME280;62197;51.632;13.700;2023-04-03T08:28:34;101732.63;;;3.41;71.77
73860;BME280;62197;51.632;13.700;2023-04-03T08:31:05;101733.88;;;3.55;69.55
73860;BME280;62197;51.632;13.700;2023-04-03T08:33:31;101732.41;;;3.77;69.02
73860;BME280;62197;51.632;13.700;2023-04-03T08:35:57;101714.72;;;3.47;68.91
73860;BME280;62197;51.632;13.700;2023-04-03T08:38:22;101723.09;;;3.45;67.37
73860;BME280;62197;51.632;13.700;2023-04-03T08:40:47;101730.66;;;2.84;69.10
73860;BME280;62197;51.632;13.700;2023-04-03T08:43:42;101733.75;;;3.73;67.50
73860;BME280;62197;51.632;13.700;2023-04-03T08:46:13;101732.53;;;3.17;68.35
73860;BME280;62197;51.632;13.700;2023-04-03T08:48:41;101730.88;;;2.99;68.54
73860;BME280;62197;51.632;13.700;2023-04-03T08:51:14;101728.44;;;2.88;70.53
73860;BME280;62197;51.632;13.700;2023-04-03T08:53:45;101743.16;;;2.69;70.77
73860;BME280;62197;51.632;13.700;2023-04-03T08:56:14;101744.28;;;2.41;70.46
73860;BME280;62197;51.632;13.700;2023-04-03T08:58:49;101742.34;;;2.51;69.43
73860;BME280;62197;51.632;13.700;2023-04-03T09:01:20;101747.56;;;2.27;69.70
73860;BME280;62197;51.632;13.700;2023-04-03T09:03:47;101744.72;;;2.28;69.36
73860;BME280;62197;51.632;13.700;2023-04-03T09:06:16;101734.66;;;2.29;69.87
73860;BME280;62197;51.632;13.700;2023-04-03T09:14:26;101723.06;;;3.37;68.04
73860;BME280;62197;51.632;13.700;2023-04-03T09:17:00;101739.59;;;3.94;66.49
73860;BME280;62197;51.632;13.700;2023-04-03T09:22:23;101733.59;;;3.24;65.62
73860;BME280;62197;51.632;13.700;2023-04-03T09:24:58;101729.75;;;3.09;64.88
73860;BME280;62197;51.632;13.700;2023-04-03T09:27:25;101740.78;;;3.33;65.24
73860;BME280;62197;51.632;13.700;2023-04-03T09:29:54;101738.91;;;3.34;64.69
73860;BME280;62197;51.632;13.700;2023-04-03T09:32:32;101734.28;;;3.76;63.85
73860;BME280;62197;51.632;13.700;2023-04-03T09:35:27;101739.78;;;3.92;60.94
73860;BME280;62197;51.632;13.700;2023-04-03T09:37:59;101726.13;;;4.16;59.33
73860;BME280;62197;51.632;13.700;2023-04-03T09:42:50;101725.69;;;3.55;62.47
73860;BME280;62197;51.632;13.700;2023-04-03T09:45:35;101731.06;;;3.81;62.99
73860;BME280;62197;51.632;13.700;2023-04-03T09:53:39;101732.81;;;4.06;62.39
73860;BME280;62197;51.632;13.700;2023-04-03T10:01:32;101725.25;;;3.84;59.68
73860;BME280;62197;51.632;13.700;2023-04-03T10:04:13;101727.53;;;3.54;58.87
73860;BME280;62197;51.632;13.700;2023-04-03T10:06:46;101715.22;;;3.34;59.98
73860;BME280;62197;51.632;13.700;2023-04-03T10:09:27;101717.56;;;3.95;59.03
73860;BME280;62197;51.632;13.700;2023-04-03T10:12:06;101732.16;;;4.20;59.14
73860;BME280;62197;51.632;13.700;2023-04-03T10:14:33;101726.63;;;3.96;59.12
73860;BME280;62197;51.632;13.700;2023-04-03T10:17:08;101727.53;;;4.52;58.19
73860;BME280;62197;51.632;13.700;2023-04-03T10:19:42;101722.22;;;4.27;58.06
73860;BME280;62197;51.632;13.700;2023-04-03T10:25:05;101720.88;;;4.39;57.48
73860;BME280;62197;51.632;13.700;2023-04-03T10:35:48;101717.41;;;3.89;58.57
73860;BME280;62197;51.632;13.700;2023-04-03T10:38:21;101724.09;;;4.02;57.74
73860;BME280;62197;51.632;13.700;2023-04-03T10:46:23;101712.66;;;3.99;58.79
73860;BME280;62197;51.632;13.700;2023-04-03T10:49:05;101708.91;;;4.48;58.03
73860;BME280;62197;51.632;13.700;2023-04-03T10:51:41;101708.53;;;4.03;57.62
73860;BME280;62197;51.632;13.700;2023-04-03T10:56:48;101703.25;;;4.57;56.69
73860;BME280;62197;51.632;13.700;2023-04-03T10:59:28;101699.53;;;5.05;53.75
73860;BME280;62197;51.632;13.700;2023-04-03T11:01:59;101702.66;;;5.41;51.53
73860;BME280;62197;51.632;13.700;2023-04-03T11:04:27;101690.13;;;5.85;50.49
73860;BME280;62197;51.632;13.700;2023-04-03T11:07:08;101692.31;;;6.12;50.80
73860;BME280;62197;51.632;13.700;2023-04-03T11:09:39;101692.63;;;5.25;53.34
73860;BME280;62197;51.632;13.700;2023-04-03T11:12:13;101705.78;;;4.83;52.18
73860;BME280;62197;51.632;13.700;2023-04-03T11:14:40;101683.63;;;4.46;52.58
73860;BME280;62197;51.632;13.700;2023-04-03T11:19:57;101691.50;;;4.25;53.69
73860;BME280;62197;51.632;13.700;2023-04-03T11:25:15;101681.06;;;4.52;53.56
73860;BME280;62197;51.632;13.700;2023-04-03T11:27:54;101692.41;;;4.96;52.69
73860;BME280;62197;51.632;13.700;2023-04-03T11:30:27;101683.34;;;5.34;53.26
73860;BME280;62197;51.632;13.700;2023-04-03T11:35:49;101685.53;;;5.08;51.44
73860;BME280;62197;51.632;13.700;2023-04-03T11:38:26;101691.34;;;5.44;49.70
73860;BME280;62197;51.632;13.700;2023-04-03T11:40:54;101678.88;;;5.41;49.07
73860;BME280;62197;51.632;13.700;2023-04-03T11:43:28;101688.72;;;5.20;48.17
73860;BME280;62197;51.632;13.700;2023-04-03T11:46:02;101684.16;;;5.04;50.40
73860;BME280;62197;51.632;13.700;2023-04-03T11:50:54;101678.91;;;6.40;49.48
73860;BME280;62197;51.632;13.700;2023-04-03T11:53:37;101679.00;;;6.09;49.66
73860;BME280;62197;51.632;13.700;2023-04-03T12:01:54;101686.94;;;5.35;49.81
73860;BME280;62197;51.632;13.700;2023-04-03T12:04:20;101677.38;;;5.62;47.70
73860;BME280;62197;51.632;13.700;2023-04-03T12:11:57;101669.06;;;5.86;45.98
73860;BME280;62197;51.632;13.700;2023-04-03T12:14:24;101676.38;;;5.63;46.94
73860;BME280;62197;51.632;13.700;2023-04-03T12:16:52;101672.09;;;5.29;47.19
73860;BME280;62197;51.632;13.700;2023-04-03T12:24:29;101674.50;;;4.78;49.62
73860;BME280;62197;51.632;13.700;2023-04-03T12:40:27;101671.22;;;5.29;48.05
73860;BME280;62197;51.632;13.700;2023-04-03T12:45:26;101661.75;;;6.01;48.18
73860;BME280;62197;51.632;13.700;2023-04-03T12:47:55;101664.97;;;6.27;48.71
73860;BME280;62197;51.632;13.700;2023-04-03T12:50:31;101664.66;;;5.77;48.28
73860;BME280;62197;51.632;13.700;2023-04-03T12:53:13;101651.84;;;5.08;49.65
73860;BME280;62197;51.632;13.700;2023-04-03T12:55:40;101660.63;;;4.87;49.79
73860;BME280;62197;51.632;13.700;2023-04-03T12:58:25;101660.19;;;4.68;50.48
73860;BME280;62197;51.632;13.700;2023-04-03T13:01:13;101666.41;;;4.29;50.87
73860;BME280;62197;51.632;13.700;2023-04-03T13:03:44;101662.25;;;4.41;50.97
73860;BME280;62197;51.632;13.700;2023-04-03T13:06:17;101666.41;;;4.29;51.34
73860;BME280;62197;51.632;13.700;2023-04-03T13:08:52;101664.50;;;4.38;52.61
73860;BME280;62197;51.632;13.700;2023-04-03T13:11:19;101665.47;;;4.61;51.22
73860;BME280;62197;51.632;13.700;2023-04-03T13:14:17;101660.75;;;4.23;50.70
73860;BME280;62197;51.632;13.700;2023-04-03T13:16:53;101661.44;;;4.17;52.06
73860;BME280;62197;51.632;13.700;2023-04-03T13:19:19;101654.09;;;4.17;50.73
73860;BME280;62197;51.632;13.700;2023-04-03T13:21:45;101665.72;;;4.35;52.36
73860;BME280;62197;51.632;13.700;2023-04-03T13:24:11;101668.06;;;4.63;51.98
73860;BME280;62197;51.632;13.700;2023-04-03T13:26:37;101659.41;;;4.90;50.03
73860;BME280;62197;51.632;13.700;2023-04-03T13:29:04;101668.69;;;4.81;50.56
73860;BME280;62197;51.632;13.700;2023-04-03T13:31:38;101659.69;;;4.48;50.82
73860;BME280;62197;51.632;13.700;2023-04-03T13:34:12;101664.66;;;4.36;51.24
73860;BME280;62197;51.632;13.700;2023-04-03T13:36:44;101667.88;;;4.72;51.76
73860;BME280;62197;51.632;13.700;2023-04-03T13:41:38;101662.22;;;4.66;51.66
73860;BME280;62197;51.632;13.700;2023-04-03T13:47:27;101654.09;;;4.17;52.68
73860;BME280;62197;51.632;13.700;2023-04-03T13:52:42;101653.59;;;4.22;54.68
73860;BME280;62197;51.632;13.700;2023-04-03T13:55:29;101656.78;;;4.57;53.82
73860;BME280;62197;51.632;13.700;2023-04-03T13:58:20;101644.56;;;4.84;52.50
73860;BME280;62197;51.632;13.700;2023-04-03T14:03:46;101649.47;;;4.34;53.99
73860;BME280;62197;51.632;13.700;2023-04-03T14:06:15;101652.19;;;4.34;54.86
73860;BME280;62197;51.632;13.700;2023-04-03T14:08:41;101648.28;;;4.36;53.64
73860;BME280;62197;51.632;13.700;2023-04-03T14:11:10;101642.31;;;4.25;53.91
73860;BME280;62197;51.632;13.700;2023-04-03T14:13:38;101643.31;;;4.32;54.94
73860;BME280;62197;51.632;13.700;2023-04-03T14:16:04;101644.00;;;4.42;53.96
73860;BME280;62197;51.632;13.700;2023-04-03T14:18:29;101643.00;;;4.35;53.16
73860;BME280;62197;51.632;13.700;2023-04-03T14:20:55;101642.91;;;4.75;54.56
73860;BME280;62197;51.632;13.700;2023-04-03T14:23:20;101641.47;;;4.95;53.01
73860;BME280;62197;51.632;13.700;2023-04-03T14:25:46;101636.47;;;4.44;52.22